createdAt,value
2022-09-09T00:02:07.300Z,98501.56
2022-09-09T00:04:37.818Z,98499.97
2022-09-09T00:07:10.500Z,98500.66
2022-09-09T00:09:50.369Z,98500.28
2022-09-09T00:12:27.730Z,98496.06
2022-09-09T00:14:59.258Z,98492.88
2022-09-09T00:17:41.927Z,98485.00
2022-09-09T00:20:17.514Z,98495.59
2022-09-09T00:22:55.163Z,98490.50
2022-09-09T00:25:33.820Z,98501.53
2022-09-09T00:28:02.282Z,98499.41
2022-09-09T00:30:37.429Z,98491.84
2022-09-09T00:33:16.366Z,98495.44
2022-09-09T00:35:52.118Z,98490.94
2022-09-09T00:38:25.620Z,98488.41
2022-09-09T00:41:05.721Z,98490.50
2022-09-09T00:43:37.600Z,98487.69
2022-09-09T00:46:37.365Z,98482.16
2022-09-09T00:49:16.722Z,98479.22
2022-09-09T00:51:54.190Z,98484.44
2022-09-09T00:54:34.439Z,98479.78
2022-09-09T00:57:20.659Z,98481.31
2022-09-09T00:59:52.420Z,98487.25
2022-09-09T01:02:31.763Z,98495.72
2022-09-09T01:05:06.840Z,98496.25
2022-09-09T01:07:35.569Z,98491.06
2022-09-09T01:10:09.646Z,98497.03
2022-09-09T01:12:44.881Z,98503.34
2022-09-09T01:15:18.251Z,98496.78
2022-09-09T01:17:57.217Z,98503.13
2022-09-09T01:20:28.700Z,98509.59
2022-09-09T01:23:35.721Z,98502.22
2022-09-09T01:26:26.204Z,98493.31
2022-09-09T01:28:55.834Z,98495.72
2022-09-09T01:31:29.256Z,98504.19
2022-09-09T01:33:57.776Z,98509.66
2022-09-09T01:36:32.504Z,98499.25
2022-09-09T01:39:03.003Z,98498.16
2022-09-09T01:41:33.370Z,98506.25
2022-09-09T01:44:03.906Z,98512.53
2022-09-09T01:46:32.457Z,98521.56
2022-09-09T01:49:03.320Z,98514.94
2022-09-09T01:51:31.959Z,98514.41
2022-09-09T01:54:00.532Z,98517.59
2022-09-09T01:56:42.756Z,98520.88
2022-09-09T01:59:27.601Z,98516.16
2022-09-09T02:02:09.063Z,98524.88
2022-09-09T02:04:41.644Z,98524.41
2022-09-09T02:07:36.303Z,98520.88
2022-09-09T02:10:12.572Z,98519.03
2022-09-09T02:12:48.997Z,98524.53
2022-09-09T02:15:24.968Z,98521.28
2022-09-09T02:17:55.068Z,98524.41
2022-09-09T02:20:25.612Z,98524.22
2022-09-09T02:22:56.521Z,98521.31
2022-09-09T02:25:30.630Z,98525.47
2022-09-09T02:28:02.688Z,98523.69
2022-09-09T02:30:35.437Z,98522.44
2022-09-09T02:33:09.432Z,98526.28
2022-09-09T02:35:39.088Z,98524.16
2022-09-09T02:38:14.413Z,98530.94
2022-09-09T02:40:46.851Z,98532.09
2022-09-09T02:43:19.855Z,98528.09
2022-09-09T02:45:55.953Z,98532.63
2022-09-09T02:48:31.832Z,98529.72
2022-09-09T02:51:08.766Z,98539.03
2022-09-09T02:53:47.826Z,98536.69
2022-09-09T02:56:19.349Z,98536.97
2022-09-09T02:58:50.579Z,98534.16
2022-09-09T03:01:19.568Z,98535.53
2022-09-09T03:03:47.897Z,98547.44
2022-09-09T03:06:16.189Z,98536.88
2022-09-09T03:08:49.419Z,98545.88
2022-09-09T03:11:18.059Z,98537.97
2022-09-09T03:13:46.502Z,98537.13
2022-09-09T03:16:16.704Z,98543.00
2022-09-09T03:18:47.814Z,98538.41
2022-09-09T03:21:16.899Z,98534.91
2022-09-09T03:23:46.092Z,98540.28
2022-09-09T03:26:16.264Z,98538.44
2022-09-09T03:28:45.821Z,98523.81
2022-09-09T03:31:15.787Z,98532.47
2022-09-09T03:33:44.294Z,98528.16
2022-09-09T03:36:12.504Z,98516.84
2022-09-09T03:38:41.418Z,98523.41
2022-09-09T03:41:11.273Z,98520.25
2022-09-09T03:43:39.528Z,98516.06
2022-09-09T03:46:08.054Z,98514.34
2022-09-09T03:48:38.704Z,98506.13
2022-09-09T03:51:07.702Z,98509.38
2022-09-09T03:53:37.962Z,98514.28
2022-09-09T03:56:09.709Z,98515.84
2022-09-09T03:58:39.213Z,98524.34
2022-09-09T04:01:10.635Z,98525.94
2022-09-09T04:03:41.321Z,98526.06
2022-09-09T04:06:13.050Z,98528.88
2022-09-09T04:08:42.658Z,98527.06
2022-09-09T04:11:11.318Z,98526.91
2022-09-09T04:13:42.691Z,98534.91
2022-09-09T04:16:14.438Z,98526.16
2022-09-09T04:18:45.965Z,98524.13
2022-09-09T04:21:15.771Z,98518.25
2022-09-09T04:23:46.785Z,98519.03
2022-09-09T04:26:15.680Z,98515.41
2022-09-09T04:28:44.171Z,98517.13
2022-09-09T04:31:17.588Z,98516.41
2022-09-09T04:33:49.088Z,98520.66
2022-09-09T04:36:22.552Z,98514.31
2022-09-09T04:38:51.081Z,98518.53
2022-09-09T04:41:19.671Z,98516.44
2022-09-09T04:43:48.036Z,98512.53
2022-09-09T04:46:18.449Z,98518.19
2022-09-09T04:48:55.965Z,98523.00
2022-09-09T04:51:26.114Z,98528.91
2022-09-09T04:53:57.284Z,98525.53
2022-09-09T04:56:27.961Z,98525.00
2022-09-09T04:58:58.752Z,98532.16
2022-09-09T05:01:28.502Z,98535.38
2022-09-09T05:04:01.696Z,98527.38
2022-09-09T05:06:32.702Z,98524.69
2022-09-09T05:09:02.273Z,98532.41
2022-09-09T05:11:33.456Z,98533.00
2022-09-09T05:14:02.365Z,98534.50
2022-09-09T05:16:31.333Z,98539.44
2022-09-09T05:19:00.279Z,98546.63
2022-09-09T05:21:30.844Z,98537.63
2022-09-09T05:24:01.341Z,98547.72
2022-09-09T05:26:32.687Z,98555.47
2022-09-09T05:29:01.687Z,98553.22
2022-09-09T05:31:32.849Z,98553.91
2022-09-09T05:34:01.285Z,98544.09
2022-09-09T05:36:31.474Z,98546.59
2022-09-09T05:39:00.918Z,98554.63
2022-09-09T05:41:30.009Z,98553.78
2022-09-09T05:43:59.988Z,98558.84
2022-09-09T05:46:29.102Z,98564.19
2022-09-09T05:48:57.300Z,98557.03
2022-09-09T05:51:28.208Z,98559.09
2022-09-09T05:54:00.590Z,98561.03
2022-09-09T05:56:31.250Z,98563.22
2022-09-09T05:59:01.825Z,98568.94
2022-09-09T06:01:34.575Z,98587.09
2022-09-09T06:04:03.513Z,98588.94
2022-09-09T06:06:38.134Z,98601.16
2022-09-09T06:09:11.076Z,98595.63
2022-09-09T06:11:41.996Z,98599.44
2022-09-09T06:14:12.105Z,98599.00
2022-09-09T06:16:40.769Z,98597.16
2022-09-09T06:19:10.542Z,98606.03
2022-09-09T06:21:39.923Z,98604.34
2022-09-09T06:24:10.589Z,98605.19
2022-09-09T06:26:42.308Z,98614.63
2022-09-09T06:29:12.289Z,98606.91
2022-09-09T06:31:42.644Z,98616.03
2022-09-09T06:34:11.307Z,98613.47
2022-09-09T06:36:41.312Z,98608.53
2022-09-09T06:39:15.013Z,98604.25
2022-09-09T06:41:44.292Z,98602.44
2022-09-09T06:44:14.380Z,98602.94
2022-09-09T06:46:42.800Z,98607.03
2022-09-09T06:49:11.530Z,98612.03
2022-09-09T06:51:44.201Z,98606.13
2022-09-09T06:54:17.401Z,98611.56
2022-09-09T06:56:46.689Z,98607.47
2022-09-09T06:59:16.212Z,98597.75
2022-09-09T07:01:46.574Z,98600.47
2022-09-09T07:04:16.115Z,98591.06
2022-09-09T07:06:46.065Z,98591.13
2022-09-09T07:09:17.527Z,98592.75
2022-09-09T07:11:47.981Z,98584.31
2022-09-09T07:14:17.020Z,98588.63
2022-09-09T07:16:46.316Z,98586.09
2022-09-09T07:19:15.823Z,98588.84
2022-09-09T07:21:44.901Z,98580.06
2022-09-09T07:24:14.882Z,98573.94
2022-09-09T07:26:45.220Z,98579.34
2022-09-09T07:29:19.810Z,98583.78
2022-09-09T07:31:49.543Z,98576.97
2022-09-09T07:34:18.136Z,98566.78
2022-09-09T07:36:47.913Z,98569.91
2022-09-09T07:39:18.555Z,98568.50
2022-09-09T07:41:50.511Z,98566.91
2022-09-09T07:44:22.575Z,98575.13
2022-09-09T07:46:51.638Z,98569.84
2022-09-09T07:49:24.509Z,98571.34
2022-09-09T07:51:56.336Z,98574.16
2022-09-09T07:54:25.032Z,98574.25
2022-09-09T07:56:55.377Z,98571.38
2022-09-09T07:59:25.170Z,98567.13
2022-09-09T08:01:56.051Z,98576.06
2022-09-09T08:04:26.381Z,98575.63
2022-09-09T08:06:56.464Z,98575.94
2022-09-09T08:09:28.742Z,98584.44
2022-09-09T08:11:59.652Z,98580.53
2022-09-09T08:14:28.156Z,98577.28
2022-09-09T08:16:57.324Z,98587.28
2022-09-09T08:19:26.104Z,98588.34
2022-09-09T08:21:55.286Z,98590.56
2022-09-09T08:24:24.330Z,98587.25
2022-09-09T08:26:52.828Z,98597.28
2022-09-09T08:29:22.876Z,98581.06
2022-09-09T08:31:54.056Z,98583.47
2022-09-09T08:34:23.092Z,98589.13
2022-09-09T08:36:53.435Z,98591.09
2022-09-09T08:39:24.986Z,98582.53
2022-09-09T08:42:25.271Z,98584.28
2022-09-09T08:45:18.660Z,98584.66
2022-09-09T08:47:59.153Z,98580.16
2022-09-09T08:50:29.492Z,98591.59
2022-09-09T08:53:04.555Z,98591.59
2022-09-09T08:55:42.653Z,98585.06
2022-09-09T08:58:16.789Z,98581.31
2022-09-09T09:01:02.644Z,98580.66
2022-09-09T09:03:43.523Z,98582.00
2022-09-09T09:06:28.320Z,98583.69
2022-09-09T09:09:03.703Z,98587.91
2022-09-09T09:11:38.749Z,98577.50
2022-09-09T09:14:14.711Z,98577.97
2022-09-09T09:16:53.419Z,98574.16
2022-09-09T09:19:24.011Z,98573.13
2022-09-09T09:22:00.210Z,98567.59
2022-09-09T09:24:43.495Z,98578.53
2022-09-09T09:27:16.579Z,98573.66
2022-09-09T09:30:18.169Z,98566.28
2022-09-09T09:32:39.439Z,98561.84
2022-09-09T09:35:13.972Z,98555.88
2022-09-09T09:40:35.250Z,98564.03
2022-09-09T09:43:07.746Z,98557.78
2022-09-09T09:45:38.072Z,98550.59
2022-09-09T09:48:13.853Z,98560.34
2022-09-09T09:50:50.923Z,98570.63
2022-09-09T09:53:26.024Z,98562.91
2022-09-09T09:56:00.425Z,98558.38
2022-09-09T09:58:32.608Z,98556.47
2022-09-09T10:01:00.875Z,98563.13
2022-09-09T10:03:33.349Z,98564.91
2022-09-09T10:06:01.824Z,98559.78
2022-09-09T10:08:31.008Z,98570.59
2022-09-09T10:11:12.428Z,98569.66
2022-09-09T10:13:55.725Z,98563.97
2022-09-09T10:16:37.863Z,98575.78
2022-09-09T10:19:15.928Z,98568.41
2022-09-09T10:22:05.727Z,98557.22
2022-09-09T10:24:45.604Z,98553.03
2022-09-09T10:27:22.642Z,98548.59
2022-09-09T10:30:10.009Z,98544.91
2022-09-09T10:32:49.730Z,98541.34
2022-09-09T10:35:30.139Z,98542.19
2022-09-09T10:38:16.811Z,98542.16
2022-09-09T10:41:03.343Z,98535.41
2022-09-09T10:43:50.882Z,98520.84
2022-09-09T10:46:30.948Z,98517.63
2022-09-09T10:49:09.624Z,98520.59
2022-09-09T10:51:50.995Z,98548.72
2022-09-09T10:54:34.354Z,98533.50
2022-09-09T10:57:07.875Z,98524.28
2022-09-09T10:59:39.636Z,98530.06
2022-09-09T11:02:18.349Z,98516.41
2022-09-09T11:04:55.153Z,98511.63
2022-09-09T11:07:31.151Z,98526.63
2022-09-09T11:10:08.925Z,98539.72
2022-09-09T11:12:42.387Z,98545.94
2022-09-09T11:15:22.369Z,98558.03
2022-09-09T11:17:55.866Z,98557.53
2022-09-09T11:20:26.414Z,98566.41
2022-09-09T11:23:01.439Z,98576.59
2022-09-09T11:25:37.755Z,98574.44
2022-09-09T11:28:23.588Z,98573.25
2022-09-09T11:31:05.539Z,98566.25
2022-09-09T11:33:54.014Z,98565.19
2022-09-09T11:36:45.819Z,98561.06
2022-09-09T11:39:46.541Z,98560.00
2022-09-09T11:42:27.068Z,98560.53
2022-09-09T11:44:56.153Z,98561.72
2022-09-09T11:47:30.551Z,98557.88
2022-09-09T11:50:14.327Z,98559.81
2022-09-09T11:53:24.363Z,98557.88
2022-09-09T11:56:12.590Z,98551.13
2022-09-09T11:58:48.268Z,98544.91
2022-09-09T12:01:38.512Z,98544.25
2022-09-09T12:04:22.391Z,98540.44
2022-09-09T12:06:56.801Z,98545.00
2022-09-09T12:09:33.828Z,98547.94
2022-09-09T12:12:10.679Z,98542.88
2022-09-09T12:14:45.921Z,98546.34
2022-09-09T12:17:22.471Z,98543.06
2022-09-09T12:20:03.445Z,98545.72
2022-09-09T12:22:40.868Z,98539.16
2022-09-09T12:25:25.458Z,98544.16
2022-09-09T12:28:10.040Z,98555.28
2022-09-09T12:30:53.080Z,98561.88
2022-09-09T12:33:23.358Z,98558.03
2022-09-09T12:35:57.712Z,98563.41
2022-09-09T12:38:34.663Z,98561.72
2022-09-09T12:41:05.737Z,98559.03
2022-09-09T12:43:37.650Z,98560.22
2022-09-09T12:46:13.056Z,98551.47
2022-09-09T12:48:44.899Z,98548.81
2022-09-09T12:51:29.600Z,98531.72
2022-09-09T12:53:58.804Z,98527.47
2022-09-09T12:56:31.795Z,98535.19
2022-09-09T12:59:01.998Z,98536.06
2022-09-09T13:01:32.837Z,98528.81
2022-09-09T13:04:02.760Z,98525.31
2022-09-09T13:06:32.526Z,98512.25
2022-09-09T13:09:02.673Z,98511.31
2022-09-09T13:11:37.647Z,98519.59
2022-09-09T13:14:09.665Z,98518.84
2022-09-09T13:16:42.956Z,98520.28
2022-09-09T13:19:18.387Z,98514.72
2022-09-09T13:21:46.741Z,98511.56
2022-09-09T13:24:33.976Z,98509.00
2022-09-09T13:27:07.805Z,98505.28
2022-09-09T13:29:38.638Z,98502.47
2022-09-09T13:32:09.070Z,98509.59
2022-09-09T13:34:39.042Z,98509.56
2022-09-09T13:37:09.284Z,98522.00
2022-09-09T13:39:39.887Z,98521.44
2022-09-09T13:42:27.263Z,98511.06
2022-09-09T13:44:57.748Z,98505.81
2022-09-09T13:47:32.788Z,98494.00
2022-09-09T13:50:21.544Z,98484.75
2022-09-09T13:52:51.854Z,98487.75
2022-09-09T13:55:25.190Z,98487.63
2022-09-09T13:57:56.660Z,98477.69
2022-09-09T14:00:26.379Z,98470.59
2022-09-09T14:02:56.219Z,98474.34
2022-09-09T14:05:25.170Z,98477.88
2022-09-09T14:07:53.565Z,98470.22
2022-09-09T14:10:23.421Z,98466.84
2022-09-09T14:12:51.800Z,98462.09
2022-09-09T14:15:23.038Z,98457.84
2022-09-09T14:17:51.637Z,98456.66
2022-09-09T14:20:20.522Z,98461.88
2022-09-09T14:22:48.945Z,98455.34
2022-09-09T14:25:18.704Z,98461.38
2022-09-09T14:27:48.436Z,98461.81
2022-09-09T14:30:17.549Z,98463.22
2022-09-09T14:32:47.877Z,98467.88
2022-09-09T14:35:16.737Z,98465.19
2022-09-09T14:37:45.843Z,98459.16
2022-09-09T14:40:15.649Z,98459.44
2022-09-09T14:42:45.204Z,98471.59
2022-09-09T14:45:14.314Z,98467.81
2022-09-09T14:47:42.904Z,98457.41
2022-09-09T14:50:15.065Z,98456.00
2022-09-09T14:52:44.572Z,98454.94
2022-09-09T14:55:13.990Z,98456.22
2022-09-09T14:57:42.656Z,98456.97
2022-09-09T15:00:12.331Z,98452.69
2022-09-09T15:02:42.007Z,98455.81
2022-09-09T15:05:12.060Z,98452.91
2022-09-09T15:07:42.534Z,98464.34
2022-09-09T15:10:12.311Z,98459.59
2022-09-09T15:12:40.737Z,98459.84
2022-09-09T15:15:10.307Z,98457.06
2022-09-09T15:17:38.560Z,98453.97
2022-09-09T15:20:07.952Z,98451.03
2022-09-09T15:22:37.813Z,98455.81
2022-09-09T15:25:09.464Z,98460.19
2022-09-09T15:27:39.780Z,98463.00
2022-09-09T15:30:09.257Z,98466.41
2022-09-09T15:32:37.835Z,98468.31
2022-09-09T15:35:06.807Z,98470.13
2022-09-09T15:37:35.262Z,98477.47
2022-09-09T15:40:04.189Z,98479.28
2022-09-09T15:42:33.713Z,98478.22
2022-09-09T15:45:02.260Z,98487.56
2022-09-09T15:47:31.576Z,98472.28
2022-09-09T15:50:00.998Z,98473.16
2022-09-09T15:52:32.264Z,98470.84
2022-09-09T15:55:02.119Z,98465.84
2022-09-09T15:57:30.829Z,98458.97
2022-09-09T16:00:01.089Z,98462.88
2022-09-09T16:02:29.674Z,98473.34
2022-09-09T16:04:58.500Z,98476.19
2022-09-09T16:07:26.594Z,98469.56
2022-09-09T16:09:55.469Z,98482.03
2022-09-09T16:12:29.216Z,98485.09
2022-09-09T16:14:58.037Z,98478.75
2022-09-09T16:17:29.168Z,98489.38
2022-09-09T16:19:58.742Z,98498.25
2022-09-09T16:22:28.264Z,98486.88
2022-09-09T16:24:56.496Z,98496.13
2022-09-09T16:27:27.962Z,98502.16
2022-09-09T16:29:56.470Z,98494.09
2022-09-09T16:32:24.843Z,98507.22
2022-09-09T16:34:54.570Z,98497.44
2022-09-09T16:37:22.811Z,98509.72
2022-09-09T16:39:51.497Z,98502.31
2022-09-09T16:42:19.809Z,98508.03
2022-09-09T16:44:48.473Z,98501.81
2022-09-09T16:47:18.135Z,98510.34
2022-09-09T16:49:46.359Z,98521.25
2022-09-09T16:52:20.422Z,98524.25
2022-09-09T16:54:49.297Z,98525.63
2022-09-09T16:57:17.444Z,98529.16
2022-09-09T16:59:45.735Z,98534.81
2022-09-09T17:02:14.443Z,98542.84
2022-09-09T17:04:42.777Z,98536.94
2022-09-09T17:07:12.649Z,98546.97
2022-09-09T17:09:42.664Z,98551.66
2022-09-09T17:12:13.249Z,98547.09
2022-09-09T17:14:42.164Z,98553.75
2022-09-09T17:17:30.686Z,98568.75
2022-09-09T17:19:59.308Z,98557.06
2022-09-09T17:22:29.939Z,98564.69
2022-09-09T17:24:59.780Z,98573.41
2022-09-09T17:27:28.443Z,98576.19
2022-09-09T17:29:56.654Z,98584.50
2022-09-09T17:32:25.076Z,98579.59
2022-09-09T17:34:53.690Z,98574.84
2022-09-09T17:37:22.048Z,98585.38
2022-09-09T17:39:52.782Z,98581.03
2022-09-09T17:42:26.912Z,98577.84
2022-09-09T17:44:55.265Z,98590.91
2022-09-09T17:47:23.714Z,98590.97
2022-09-09T17:49:52.345Z,98591.25
2022-09-09T17:52:21.274Z,98589.00
2022-09-09T17:54:50.190Z,98595.97
2022-09-09T17:57:20.263Z,98589.91
2022-09-09T17:59:50.485Z,98584.56
2022-09-09T18:02:19.084Z,98587.50
2022-09-09T18:04:47.843Z,98582.72
2022-09-09T18:07:16.262Z,98588.13
2022-09-09T18:09:44.689Z,98586.81
2022-09-09T18:12:13.182Z,98583.59
2022-09-09T18:14:41.597Z,98589.59
2022-09-09T18:17:12.032Z,98594.41
2022-09-09T18:19:40.406Z,98588.66
2022-09-09T18:22:08.824Z,98591.13
2022-09-09T18:24:37.205Z,98593.78
2022-09-09T18:27:06.218Z,98592.88
2022-09-09T18:29:34.528Z,98593.63
2022-09-09T18:32:03.330Z,98600.38
2022-09-09T18:34:33.478Z,98596.53
2022-09-09T18:37:01.597Z,98603.34
2022-09-09T18:39:31.326Z,98605.50
2022-09-09T18:42:01.913Z,98606.94
2022-09-09T18:44:31.724Z,98616.84
2022-09-09T18:47:00.727Z,98616.31
2022-09-09T18:49:30.054Z,98619.38
2022-09-09T18:52:00.012Z,98617.22
2022-09-09T18:54:30.514Z,98613.53
2022-09-09T18:57:01.008Z,98613.00
2022-09-09T18:59:29.631Z,98614.75
2022-09-09T19:01:59.517Z,98614.81
2022-09-09T19:04:29.530Z,98620.25
2022-09-09T19:07:00.520Z,98627.31
2022-09-09T19:09:31.783Z,98621.72
2022-09-09T19:12:02.054Z,98622.81
2022-09-09T19:14:31.394Z,98633.69
2022-09-09T19:17:00.846Z,98633.59
2022-09-09T19:19:32.333Z,98637.13
2022-09-09T19:22:06.876Z,98639.78
2022-09-09T19:24:35.674Z,98633.78
2022-09-09T19:27:06.905Z,98633.78
2022-09-09T19:29:39.597Z,98636.63
2022-09-09T19:34:57.426Z,98636.56
2022-09-09T19:37:27.705Z,98640.53
2022-09-09T19:39:58.349Z,98639.78
2022-09-09T19:42:26.964Z,98645.56
2022-09-09T19:44:56.982Z,98650.31
2022-09-09T19:47:25.646Z,98645.34
2022-09-09T19:49:54.321Z,98652.31
2022-09-09T19:52:22.708Z,98654.69
2022-09-09T19:54:52.739Z,98660.25
2022-09-09T19:57:21.854Z,98662.50
2022-09-09T19:59:50.575Z,98660.06
2022-09-09T20:02:19.466Z,98657.38
2022-09-09T20:04:48.092Z,98660.47
2022-09-09T20:07:16.240Z,98658.56
2022-09-09T20:09:44.338Z,98657.41
2022-09-09T20:12:14.170Z,98648.47
2022-09-09T20:14:42.501Z,98646.91
2022-09-09T20:17:11.491Z,98658.44
2022-09-09T20:19:40.292Z,98650.16
2022-09-09T20:22:08.686Z,98658.78
2022-09-09T20:24:37.939Z,98656.78
2022-09-09T20:27:08.006Z,98663.03
2022-09-09T20:29:38.238Z,98660.53
2022-09-09T20:32:07.329Z,98664.19
2022-09-09T20:34:35.858Z,98672.75
2022-09-09T20:37:04.878Z,98663.88
2022-09-09T20:39:33.767Z,98667.69
2022-09-09T20:42:03.234Z,98664.56
2022-09-09T20:44:31.691Z,98665.81
2022-09-09T20:47:06.341Z,98663.19
2022-09-09T20:49:35.298Z,98665.53
2022-09-09T20:52:04.120Z,98663.56
2022-09-09T20:54:32.360Z,98666.03
2022-09-09T20:57:01.237Z,98664.03
2022-09-09T20:59:32.107Z,98662.06
2022-09-09T21:02:02.810Z,98657.69
2022-09-09T21:04:31.494Z,98671.53
2022-09-09T21:06:59.633Z,98670.75
2022-09-09T21:09:30.014Z,98672.66
2022-09-09T21:11:58.483Z,98681.97
2022-09-09T21:14:27.568Z,98677.84
2022-09-09T21:16:56.383Z,98683.00
2022-09-09T21:19:29.662Z,98677.09
2022-09-09T21:21:59.127Z,98685.19
2022-09-09T21:24:28.752Z,98692.28
2022-09-09T21:26:57.704Z,98696.47
2022-09-09T21:29:26.082Z,98703.00
2022-09-09T21:31:55.902Z,98699.75
2022-09-09T21:34:25.643Z,98710.75
2022-09-09T21:36:53.919Z,98711.56
2022-09-09T21:39:22.428Z,98720.13
2022-09-09T21:41:50.418Z,98715.22
2022-09-09T21:44:21.222Z,98728.84
2022-09-09T21:46:49.367Z,98727.06
2022-09-09T21:49:17.889Z,98724.38
2022-09-09T21:51:48.446Z,98731.66
2022-09-09T21:54:17.058Z,98730.81
2022-09-09T21:56:47.763Z,98727.06
2022-09-09T21:59:17.480Z,98731.53
2022-09-09T22:01:46.487Z,98736.81
2022-09-09T22:04:14.736Z,98733.31
2022-09-09T22:06:42.871Z,98735.28
2022-09-09T22:09:12.656Z,98734.69
2022-09-09T22:11:41.280Z,98739.88
2022-09-09T22:14:09.606Z,98744.78
2022-09-09T22:16:40.478Z,98742.25
2022-09-09T22:19:08.564Z,98749.72
2022-09-09T22:21:36.821Z,98754.06
2022-09-09T22:24:06.979Z,98755.31
2022-09-09T22:26:38.874Z,98746.91
2022-09-09T22:29:09.122Z,98757.88
2022-09-09T22:31:38.154Z,98749.44
2022-09-09T22:34:07.696Z,98757.03
2022-09-09T22:36:36.951Z,98752.22
2022-09-09T22:39:05.644Z,98744.78
2022-09-09T22:41:34.110Z,98752.78
2022-09-09T22:44:05.283Z,98753.94
2022-09-09T22:46:33.719Z,98753.78
2022-09-09T22:49:03.895Z,98753.78
2022-09-09T22:51:34.537Z,98750.88
2022-09-09T22:54:05.832Z,98749.88
2022-09-09T22:56:34.344Z,98751.28
2022-09-09T22:59:04.536Z,98759.13
2022-09-09T23:01:33.339Z,98749.88
2022-09-09T23:04:03.000Z,98747.91
2022-09-09T23:06:32.027Z,98747.75
2022-09-09T23:09:02.761Z,98742.56
2022-09-09T23:11:33.996Z,98749.41
2022-09-09T23:14:05.443Z,98756.84
2022-09-09T23:16:38.552Z,98763.44
2022-09-09T23:19:10.175Z,98765.03
2022-09-09T23:21:39.633Z,98760.19
2022-09-09T23:24:10.274Z,98766.00
2022-09-09T23:26:39.091Z,98764.16
2022-09-09T23:29:14.500Z,98775.09
2022-09-09T23:31:44.568Z,98774.41
2022-09-09T23:34:13.376Z,98771.06
2022-09-09T23:36:42.826Z,98786.88
2022-09-09T23:39:13.260Z,98783.25
2022-09-09T23:41:41.687Z,98775.00
2022-09-09T23:44:13.765Z,98779.78
2022-09-09T23:46:42.201Z,98771.47
2022-09-09T23:49:11.240Z,98783.81
2022-09-09T23:51:39.932Z,98777.75
2022-09-09T23:54:10.067Z,98778.19
2022-09-09T23:56:43.808Z,98780.97
2022-09-09T23:59:13.956Z,98778.69
